sensor_id;sensor_type;location;lat;lon;timestamp;P1;durP1;ratioP1;P2;durP2;ratioP2
30173;SDS011;16985;50.814;8.530;2023-02-10T00:01:31;52.83;;;27.95;;
30173;SDS011;16985;50.814;8.530;2023-02-10T00:03:57;65.03;;;29.75;;
30173;SDS011;16985;50.814;8.530;2023-02-10T00:06:24;60.83;;;27.88;;
30173;SDS011;16985;50.814;8.530;2023-02-10T00:08:54;64.43;;;29.25;;
30173;SDS011;16985;50.814;8.530;2023-02-10T00:11:26;55.80;;;27.45;;
30173;SDS011;16985;50.814;8.530;2023-02-10T00:14:18;53.13;;;26.17;;
30173;SDS011;16985;50.814;8.530;2023-02-10T00:16:44;62.40;;;29.20;;
30173;SDS011;16985;50.814;8.530;2023-02-10T00:19:14;58.72;;;27.85;;
30173;SDS011;16985;50.814;8.530;2023-02-10T00:21:40;82.70;;;35.50;;
30173;SDS011;16985;50.814;8.530;2023-02-10T00:24:08;80.85;;;33.58;;
30173;SDS011;16985;50.814;8.530;2023-02-10T00:26:34;87.63;;;36.35;;
30173;SDS011;16985;50.814;8.530;2023-02-10T00:29:00;88.15;;;36.88;;
30173;SDS011;16985;50.814;8.530;2023-02-10T00:31:26;93.78;;;38.75;;
30173;SDS011;16985;50.814;8.530;2023-02-10T00:33:52;91.82;;;37.22;;
30173;SDS011;16985;50.814;8.530;2023-02-10T00:36:18;80.80;;;35.42;;
30173;SDS011;16985;50.814;8.530;2023-02-10T00:38:43;78.93;;;33.50;;
30173;SDS011;16985;50.814;8.530;2023-02-10T00:41:16;86.25;;;36.45;;
30173;SDS011;16985;50.814;8.530;2023-02-10T00:43:45;74.15;;;31.42;;
30173;SDS011;16985;50.814;8.530;2023-02-10T00:46:11;68.82;;;31.95;;
30173;SDS011;16985;50.814;8.530;2023-02-10T00:48:39;69.53;;;33.80;;
30173;SDS011;16985;50.814;8.530;2023-02-10T00:51:04;65.47;;;30.27;;
30173;SDS011;16985;50.814;8.530;2023-02-10T00:53:31;67.85;;;32.00;;
30173;SDS011;16985;50.814;8.530;2023-02-10T00:55:58;67.13;;;29.70;;
30173;SDS011;16985;50.814;8.530;2023-02-10T00:58:24;59.17;;;29.48;;
30173;SDS011;16985;50.814;8.530;2023-02-10T01:00:51;68.90;;;28.55;;
30173;SDS011;16985;50.814;8.530;2023-02-10T01:03:18;61.87;;;29.43;;
30173;SDS011;16985;50.814;8.530;2023-02-10T01:05:44;63.60;;;27.40;;
30173;SDS011;16985;50.814;8.530;2023-02-10T01:08:11;64.55;;;29.55;;
30173;SDS011;16985;50.814;8.530;2023-02-10T01:10:37;54.20;;;27.08;;
30173;SDS011;16985;50.814;8.530;2023-02-10T01:13:04;58.63;;;26.58;;
30173;SDS011;16985;50.814;8.530;2023-02-10T01:15:31;57.53;;;26.75;;
30173;SDS011;16985;50.814;8.530;2023-02-10T01:17:58;63.88;;;27.20;;
30173;SDS011;16985;50.814;8.530;2023-02-10T01:20:24;59.95;;;28.42;;
30173;SDS011;16985;50.814;8.530;2023-02-10T01:22:50;56.92;;;26.80;;
30173;SDS011;16985;50.814;8.530;2023-02-10T01:25:16;56.58;;;27.88;;
30173;SDS011;16985;50.814;8.530;2023-02-10T01:27:42;58.58;;;26.08;;
30173;SDS011;16985;50.814;8.530;2023-02-10T01:30:08;53.80;;;26.30;;
30173;SDS011;16985;50.814;8.530;2023-02-10T01:32:35;49.60;;;24.95;;
30173;SDS011;16985;50.814;8.530;2023-02-10T01:35:02;60.10;;;27.95;;
30173;SDS011;16985;50.814;8.530;2023-02-10T01:37:29;59.03;;;26.70;;
30173;SDS011;16985;50.814;8.530;2023-02-10T01:39:55;52.38;;;25.90;;
30173;SDS011;16985;50.814;8.530;2023-02-10T01:42:21;56.05;;;27.23;;
30173;SDS011;16985;50.814;8.530;2023-02-10T01:49:42;54.00;;;25.77;;
30173;SDS011;16985;50.814;8.530;2023-02-10T01:52:31;56.20;;;26.45;;
30173;SDS011;16985;50.814;8.530;2023-02-10T01:55:03;51.17;;;26.23;;
30173;SDS011;16985;50.814;8.530;2023-02-10T01:57:34;53.38;;;23.77;;
30173;SDS011;16985;50.814;8.530;2023-02-10T02:00:03;50.63;;;25.70;;
30173;SDS011;16985;50.814;8.530;2023-02-10T02:02:36;51.97;;;26.05;;
30173;SDS011;16985;50.814;8.530;2023-02-10T02:05:04;56.70;;;27.70;;
30173;SDS011;16985;50.814;8.530;2023-02-10T02:07:39;55.60;;;24.67;;
30173;SDS011;16985;50.814;8.530;2023-02-10T02:10:08;53.40;;;26.33;;
30173;SDS011;16985;50.814;8.530;2023-02-10T02:12:39;62.40;;;28.80;;
30173;SDS011;16985;50.814;8.530;2023-02-10T02:15:46;50.95;;;25.98;;
30173;SDS011;16985;50.814;8.530;2023-02-10T02:21:26;73.60;;;32.30;;
30173;SDS011;16985;50.814;8.530;2023-02-10T02:26:55;100.03;;;36.50;;
30173;SDS011;16985;50.814;8.530;2023-02-10T02:32:21;78.90;;;34.97;;
30173;SDS011;16985;50.814;8.530;2023-02-10T02:34:52;82.80;;;37.88;;
30173;SDS011;16985;50.814;8.530;2023-02-10T02:37:29;105.65;;;40.63;;
30173;SDS011;16985;50.814;8.530;2023-02-10T02:39:58;108.95;;;42.63;;
30173;SDS011;16985;50.814;8.530;2023-02-10T02:42:28;112.68;;;43.28;;
30173;SDS011;16985;50.814;8.530;2023-02-10T02:51:01;106.68;;;40.33;;
30173;SDS011;16985;50.814;8.530;2023-02-10T03:04:21;103.38;;;41.72;;
30173;SDS011;16985;50.814;8.530;2023-02-10T03:06:48;119.18;;;41.22;;
30173;SDS011;16985;50.814;8.530;2023-02-10T03:09:14;132.70;;;47.20;;
30173;SDS011;16985;50.814;8.530;2023-02-10T03:11:40;126.10;;;45.03;;
30173;SDS011;16985;50.814;8.530;2023-02-10T03:14:06;133.20;;;47.50;;
30173;SDS011;16985;50.814;8.530;2023-02-10T03:16:31;107.20;;;42.17;;
30173;SDS011;16985;50.814;8.530;2023-02-10T03:18:57;119.15;;;46.08;;
30173;SDS011;16985;50.814;8.530;2023-02-10T03:21:23;115.95;;;44.85;;
30173;SDS011;16985;50.814;8.530;2023-02-10T03:23:50;136.88;;;47.10;;
30173;SDS011;16985;50.814;8.530;2023-02-10T03:26:16;138.57;;;48.92;;
30173;SDS011;16985;50.814;8.530;2023-02-10T03:28:43;139.48;;;51.28;;
30173;SDS011;16985;50.814;8.530;2023-02-10T03:31:09;144.93;;;50.45;;
30173;SDS011;16985;50.814;8.530;2023-02-10T03:33:35;140.82;;;49.20;;
30173;SDS011;16985;50.814;8.530;2023-02-10T03:36:01;151.20;;;52.85;;
30173;SDS011;16985;50.814;8.530;2023-02-10T03:38:28;143.80;;;52.58;;
30173;SDS011;16985;50.814;8.530;2023-02-10T03:40:57;139.77;;;51.70;;
30173;SDS011;16985;50.814;8.530;2023-02-10T03:43:22;158.23;;;55.22;;
30173;SDS011;16985;50.814;8.530;2023-02-10T03:45:48;154.32;;;52.72;;
30173;SDS011;16985;50.814;8.530;2023-02-10T03:48:14;165.07;;;55.95;;
30173;SDS011;16985;50.814;8.530;2023-02-10T03:50:40;171.70;;;56.90;;
30173;SDS011;16985;50.814;8.530;2023-02-10T03:53:07;165.68;;;56.50;;
30173;SDS011;16985;50.814;8.530;2023-02-10T03:55:33;157.60;;;55.25;;
30173;SDS011;16985;50.814;8.530;2023-02-10T03:58:00;145.82;;;52.30;;
30173;SDS011;16985;50.814;8.530;2023-02-10T04:00:26;153.15;;;52.45;;
30173;SDS011;16985;50.814;8.530;2023-02-10T04:02:54;164.68;;;53.10;;
30173;SDS011;16985;50.814;8.530;2023-02-10T04:05:20;159.63;;;53.33;;
30173;SDS011;16985;50.814;8.530;2023-02-10T04:07:46;151.25;;;56.00;;
30173;SDS011;16985;50.814;8.530;2023-02-10T04:10:11;159.95;;;55.22;;
30173;SDS011;16985;50.814;8.530;2023-02-10T04:12:37;156.55;;;54.22;;
30173;SDS011;16985;50.814;8.530;2023-02-10T04:15:04;162.70;;;57.58;;
30173;SDS011;16985;50.814;8.530;2023-02-10T04:17:31;167.55;;;56.47;;
30173;SDS011;16985;50.814;8.530;2023-02-10T04:19:58;162.57;;;55.85;;
30173;SDS011;16985;50.814;8.530;2023-02-10T04:22:23;172.65;;;58.05;;
30173;SDS011;16985;50.814;8.530;2023-02-10T04:24:49;180.43;;;59.17;;
30173;SDS011;16985;50.814;8.530;2023-02-10T04:27:15;168.05;;;58.17;;
30173;SDS011;16985;50.814;8.530;2023-02-10T04:29:41;157.82;;;58.80;;
30173;SDS011;16985;50.814;8.530;2023-02-10T04:32:07;168.38;;;59.22;;
30173;SDS011;16985;50.814;8.530;2023-02-10T04:34:33;169.20;;;58.63;;
30173;SDS011;16985;50.814;8.530;2023-02-10T04:36:59;169.75;;;58.70;;
30173;SDS011;16985;50.814;8.530;2023-02-10T04:39:25;171.88;;;59.58;;
30173;SDS011;16985;50.814;8.530;2023-02-10T04:41:51;159.38;;;58.78;;
30173;SDS011;16985;50.814;8.530;2023-02-10T04:44:17;180.52;;;58.78;;
30173;SDS011;16985;50.814;8.530;2023-02-10T04:46:43;164.13;;;56.63;;
30173;SDS011;16985;50.814;8.530;2023-02-10T04:49:08;154.45;;;56.80;;
30173;SDS011;16985;50.814;8.530;2023-02-10T04:51:34;166.65;;;57.70;;
30173;SDS011;16985;50.814;8.530;2023-02-10T04:54:00;166.10;;;58.20;;
30173;SDS011;16985;50.814;8.530;2023-02-10T04:56:26;152.98;;;57.67;;
30173;SDS011;16985;50.814;8.530;2023-02-10T04:58:52;150.80;;;57.17;;
30173;SDS011;16985;50.814;8.530;2023-02-10T05:01:17;136.02;;;55.67;;
30173;SDS011;16985;50.814;8.530;2023-02-10T05:03:46;156.10;;;57.75;;
30173;SDS011;16985;50.814;8.530;2023-02-10T05:06:13;166.50;;;60.72;;
30173;SDS011;16985;50.814;8.530;2023-02-10T05:08:40;169.85;;;64.40;;
30173;SDS011;16985;50.814;8.530;2023-02-10T05:11:09;150.20;;;56.83;;
30173;SDS011;16985;50.814;8.530;2023-02-10T05:13:39;160.85;;;59.13;;
30173;SDS011;16985;50.814;8.530;2023-02-10T05:16:06;162.20;;;59.88;;
30173;SDS011;16985;50.814;8.530;2023-02-10T05:18:33;156.97;;;59.27;;
30173;SDS011;16985;50.814;8.530;2023-02-10T05:20:59;154.35;;;59.28;;
30173;SDS011;16985;50.814;8.530;2023-02-10T05:23:27;164.52;;;58.92;;
30173;SDS011;16985;50.814;8.530;2023-02-10T05:25:54;160.95;;;57.60;;
30173;SDS011;16985;50.814;8.530;2023-02-10T05:28:20;159.50;;;57.70;;
30173;SDS011;16985;50.814;8.530;2023-02-10T05:30:46;144.52;;;57.80;;
30173;SDS011;16985;50.814;8.530;2023-02-10T05:33:13;154.77;;;57.65;;
30173;SDS011;16985;50.814;8.530;2023-02-10T05:35:39;146.88;;;56.28;;
30173;SDS011;16985;50.814;8.530;2023-02-10T05:38:05;142.45;;;56.85;;
30173;SDS011;16985;50.814;8.530;2023-02-10T05:40:31;139.75;;;56.05;;
30173;SDS011;16985;50.814;8.530;2023-02-10T05:42:57;147.43;;;57.88;;
30173;SDS011;16985;50.814;8.530;2023-02-10T05:45:23;134.55;;;52.70;;
30173;SDS011;16985;50.814;8.530;2023-02-10T05:47:49;139.27;;;55.75;;
30173;SDS011;16985;50.814;8.530;2023-02-10T05:50:16;145.80;;;55.72;;
30173;SDS011;16985;50.814;8.530;2023-02-10T05:52:43;138.55;;;53.28;;
30173;SDS011;16985;50.814;8.530;2023-02-10T05:55:09;131.02;;;52.40;;
30173;SDS011;16985;50.814;8.530;2023-02-10T05:57:35;127.82;;;52.63;;
30173;SDS011;16985;50.814;8.530;2023-02-10T06:00:03;135.75;;;51.83;;
30173;SDS011;16985;50.814;8.530;2023-02-10T06:02:37;133.00;;;53.55;;
30173;SDS011;16985;50.814;8.530;2023-02-10T06:05:03;129.00;;;52.13;;
30173;SDS011;16985;50.814;8.530;2023-02-10T06:07:29;132.05;;;52.13;;
30173;SDS011;16985;50.814;8.530;2023-02-10T06:09:54;133.93;;;52.42;;
30173;SDS011;16985;50.814;8.530;2023-02-10T06:12:20;134.40;;;52.08;;
30173;SDS011;16985;50.814;8.530;2023-02-10T06:14:46;126.85;;;52.00;;
30173;SDS011;16985;50.814;8.530;2023-02-10T06:17:12;133.25;;;52.33;;
30173;SDS011;16985;50.814;8.530;2023-02-10T06:19:38;118.90;;;47.67;;
30173;SDS011;16985;50.814;8.530;2023-02-10T06:22:05;136.68;;;52.90;;
30173;SDS011;16985;50.814;8.530;2023-02-10T06:24:33;106.10;;;48.75;;
30173;SDS011;16985;50.814;8.530;2023-02-10T06:26:59;122.15;;;50.33;;
30173;SDS011;16985;50.814;8.530;2023-02-10T06:29:24;123.53;;;51.30;;
30173;SDS011;16985;50.814;8.530;2023-02-10T06:31:51;119.53;;;49.28;;
30173;SDS011;16985;50.814;8.530;2023-02-10T06:34:17;128.20;;;49.75;;
30173;SDS011;16985;50.814;8.530;2023-02-10T06:36:43;115.45;;;49.08;;
30173;SDS011;16985;50.814;8.530;2023-02-10T06:39:09;112.75;;;47.35;;
30173;SDS011;16985;50.814;8.530;2023-02-10T06:41:34;113.38;;;49.55;;
30173;SDS011;16985;50.814;8.530;2023-02-10T06:44:00;126.10;;;49.75;;
30173;SDS011;16985;50.814;8.530;2023-02-10T06:46:26;111.80;;;46.22;;
30173;SDS011;16985;50.814;8.530;2023-02-10T06:48:52;104.68;;;46.13;;
30173;SDS011;16985;50.814;8.530;2023-02-10T06:51:18;110.53;;;47.50;;
30173;SDS011;16985;50.814;8.530;2023-02-10T06:53:47;109.00;;;47.60;;
30173;SDS011;16985;50.814;8.530;2023-02-10T06:56:13;111.35;;;46.92;;
30173;SDS011;16985;50.814;8.530;2023-02-10T06:58:39;110.65;;;49.33;;
30173;SDS011;16985;50.814;8.530;2023-02-10T07:01:08;109.35;;;47.58;;
30173;SDS011;16985;50.814;8.530;2023-02-10T07:03:35;112.82;;;49.92;;
30173;SDS011;16985;50.814;8.530;2023-02-10T07:06:02;115.55;;;48.13;;
30173;SDS011;16985;50.814;8.530;2023-02-10T07:08:28;106.78;;;47.20;;
30173;SDS011;16985;50.814;8.530;2023-02-10T07:10:54;111.25;;;45.65;;
30173;SDS011;16985;50.814;8.530;2023-02-10T07:13:20;106.13;;;45.97;;
30173;SDS011;16985;50.814;8.530;2023-02-10T07:15:46;116.43;;;47.53;;
30173;SDS011;16985;50.814;8.530;2023-02-10T07:18:12;113.22;;;47.33;;
30173;SDS011;16985;50.814;8.530;2023-02-10T07:20:38;107.50;;;46.15;;
30173;SDS011;16985;50.814;8.530;2023-02-10T07:23:03;122.47;;;48.80;;
30173;SDS011;16985;50.814;8.530;2023-02-10T07:25:29;110.43;;;47.10;;
30173;SDS011;16985;50.814;8.530;2023-02-10T07:27:55;107.60;;;47.00;;
30173;SDS011;16985;50.814;8.530;2023-02-10T07:30:21;108.07;;;47.88;;
30173;SDS011;16985;50.814;8.530;2023-02-10T07:32:47;115.65;;;47.08;;
30173;SDS011;16985;50.814;8.530;2023-02-10T07:35:13;108.97;;;47.25;;
30173;SDS011;16985;50.814;8.530;2023-02-10T07:37:38;115.13;;;47.33;;
30173;SDS011;16985;50.814;8.530;2023-02-10T07:40:05;106.03;;;46.88;;
30173;SDS011;16985;50.814;8.530;2023-02-10T07:42:31;111.07;;;46.33;;
30173;SDS011;16985;50.814;8.530;2023-02-10T07:45:12;104.05;;;44.95;;
30173;SDS011;16985;50.814;8.530;2023-02-10T07:47:38;112.18;;;43.33;;
30173;SDS011;16985;50.814;8.530;2023-02-10T07:50:04;107.70;;;46.63;;
30173;SDS011;16985;50.814;8.530;2023-02-10T07:52:30;107.40;;;46.75;;
30173;SDS011;16985;50.814;8.530;2023-02-10T07:54:56;105.60;;;49.05;;
30173;SDS011;16985;50.814;8.530;2023-02-10T07:57:23;122.00;;;51.22;;
30173;SDS011;16985;50.814;8.530;2023-02-10T07:59:49;127.70;;;53.80;;
30173;SDS011;16985;50.814;8.530;2023-02-10T08:02:14;130.75;;;55.78;;
30173;SDS011;16985;50.814;8.530;2023-02-10T08:04:40;125.80;;;52.75;;
30173;SDS011;16985;50.814;8.530;2023-02-10T08:07:06;133.40;;;55.17;;
30173;SDS011;16985;50.814;8.530;2023-02-10T08:09:32;125.75;;;53.72;;
30173;SDS011;16985;50.814;8.530;2023-02-10T08:11:57;128.45;;;54.78;;
30173;SDS011;16985;50.814;8.530;2023-02-10T08:14:23;131.23;;;57.35;;
30173;SDS011;16985;50.814;8.530;2023-02-10T08:16:49;126.32;;;55.85;;
30173;SDS011;16985;50.814;8.530;2023-02-10T08:19:15;123.53;;;56.47;;
30173;SDS011;16985;50.814;8.530;2023-02-10T08:21:41;120.68;;;55.40;;
30173;SDS011;16985;50.814;8.530;2023-02-10T08:24:06;128.00;;;54.40;;
30173;SDS011;16985;50.814;8.530;2023-02-10T08:26:32;124.00;;;51.47;;
30173;SDS011;16985;50.814;8.530;2023-02-10T08:28:59;114.43;;;50.17;;
30173;SDS011;16985;50.814;8.530;2023-02-10T08:31:25;113.53;;;49.78;;
30173;SDS011;16985;50.814;8.530;2023-02-10T08:33:51;114.32;;;47.60;;
30173;SDS011;16985;50.814;8.530;2023-02-10T08:36:18;117.53;;;48.95;;
30173;SDS011;16985;50.814;8.530;2023-02-10T08:38:45;104.60;;;44.58;;
30173;SDS011;16985;50.814;8.530;2023-02-10T08:41:13;110.53;;;46.10;;
30173;SDS011;16985;50.814;8.530;2023-02-10T08:43:40;97.72;;;41.38;;
30173;SDS011;16985;50.814;8.530;2023-02-10T08:46:07;89.55;;;40.33;;
30173;SDS011;16985;50.814;8.530;2023-02-10T08:48:33;109.00;;;45.92;;
30173;SDS011;16985;50.814;8.530;2023-02-10T08:51:00;100.22;;;41.95;;
30173;SDS011;16985;50.814;8.530;2023-02-10T08:53:30;93.75;;;42.08;;
30173;SDS011;16985;50.814;8.530;2023-02-10T08:55:57;96.10;;;42.13;;
30173;SDS011;16985;50.814;8.530;2023-02-10T08:58:26;106.78;;;43.78;;
30173;SDS011;16985;50.814;8.530;2023-02-10T09:00:52;96.75;;;41.65;;
30173;SDS011;16985;50.814;8.530;2023-02-10T09:03:18;96.18;;;41.25;;
30173;SDS011;16985;50.814;8.530;2023-02-10T09:05:44;108.28;;;43.40;;
30173;SDS011;16985;50.814;8.530;2023-02-10T09:08:14;100.50;;;42.60;;
30173;SDS011;16985;50.814;8.530;2023-02-10T09:10:42;107.15;;;42.17;;
30173;SDS011;16985;50.814;8.530;2023-02-10T09:13:09;84.47;;;40.20;;
30173;SDS011;16985;50.814;8.530;2023-02-10T09:15:39;93.90;;;40.80;;
30173;SDS011;16985;50.814;8.530;2023-02-10T09:18:07;101.63;;;39.90;;
30173;SDS011;16985;50.814;8.530;2023-02-10T09:20:34;94.43;;;40.38;;
30173;SDS011;16985;50.814;8.530;2023-02-10T09:23:01;114.03;;;41.75;;
30173;SDS011;16985;50.814;8.530;2023-02-10T09:25:26;96.85;;;40.78;;
30173;SDS011;16985;50.814;8.530;2023-02-10T09:27:52;91.90;;;40.88;;
30173;SDS011;16985;50.814;8.530;2023-02-10T09:30:21;92.95;;;39.50;;
30173;SDS011;16985;50.814;8.530;2023-02-10T09:32:50;100.90;;;40.15;;
30173;SDS011;16985;50.814;8.530;2023-02-10T09:35:16;96.75;;;39.70;;
30173;SDS011;16985;50.814;8.530;2023-02-10T09:37:42;94.90;;;41.65;;
30173;SDS011;16985;50.814;8.530;2023-02-10T09:40:52;86.68;;;38.22;;
30173;SDS011;16985;50.814;8.530;2023-02-10T09:45:42;94.25;;;38.45;;
30173;SDS011;16985;50.814;8.530;2023-02-10T09:53:40;86.43;;;40.28;;
30173;SDS011;16985;50.814;8.530;2023-02-10T09:56:07;104.65;;;39.55;;
30173;SDS011;16985;50.814;8.530;2023-02-10T09:58:48;82.43;;;35.97;;
30173;SDS011;16985;50.814;8.530;2023-02-10T10:04:23;96.78;;;41.08;;
30173;SDS011;16985;50.814;8.530;2023-02-10T10:06:56;80.30;;;36.00;;
30173;SDS011;16985;50.814;8.530;2023-02-10T10:09:46;71.93;;;32.67;;
30173;SDS011;16985;50.814;8.530;2023-02-10T10:12:35;69.10;;;31.48;;
30173;SDS011;16985;50.814;8.530;2023-02-10T10:15:03;78.47;;;32.47;;
30173;SDS011;16985;50.814;8.530;2023-02-10T10:17:42;74.07;;;31.23;;
30173;SDS011;16985;50.814;8.530;2023-02-10T10:26:24;63.80;;;28.73;;
30173;SDS011;16985;50.814;8.530;2023-02-10T10:29:43;66.63;;;29.27;;
30173;SDS011;16985;50.814;8.530;2023-02-10T10:34:58;58.00;;;29.90;;
30173;SDS011;16985;50.814;8.530;2023-02-10T10:37:25;62.70;;;27.70;;
30173;SDS011;16985;50.814;8.530;2023-02-10T10:40:04;63.15;;;28.27;;
30173;SDS011;16985;50.814;8.530;2023-02-10T10:42:45;56.90;;;28.33;;
30173;SDS011;16985;50.814;8.530;2023-02-10T10:45:16;48.83;;;26.17;;
30173;SDS011;16985;50.814;8.530;2023-02-10T10:47:48;52.88;;;26.25;;
30173;SDS011;16985;50.814;8.530;2023-02-10T10:50:21;62.67;;;28.80;;
30173;SDS011;16985;50.814;8.530;2023-02-10T10:52:49;71.32;;;30.00;;
30173;SDS011;16985;50.814;8.530;2023-02-10T10:55:19;69.45;;;33.17;;
30173;SDS011;16985;50.814;8.530;2023-02-10T10:57:55;62.63;;;30.55;;
30173;SDS011;16985;50.814;8.530;2023-02-10T11:00:23;74.05;;;34.90;;
30173;SDS011;16985;50.814;8.530;2023-02-10T11:05:32;61.38;;;29.85;;
30173;SDS011;16985;50.814;8.530;2023-02-10T11:08:02;59.47;;;28.70;;
30173;SDS011;16985;50.814;8.530;2023-02-10T11:10:33;49.30;;;26.42;;
30173;SDS011;16985;50.814;8.530;2023-02-10T11:13:20;53.30;;;24.88;;
30173;SDS011;16985;50.814;8.530;2023-02-10T11:16:10;45.70;;;23.92;;
30173;SDS011;16985;50.814;8.530;2023-02-10T11:18:50;45.63;;;22.08;;
30173;SDS011;16985;50.814;8.530;2023-02-10T11:21:32;42.80;;;21.77;;
30173;SDS011;16985;50.814;8.530;2023-02-10T11:24:00;48.35;;;22.92;;
30173;SDS011;16985;50.814;8.530;2023-02-10T11:26:26;43.15;;;23.38;;
30173;SDS011;16985;50.814;8.530;2023-02-10T11:28:53;39.97;;;20.50;;
30173;SDS011;16985;50.814;8.530;2023-02-10T11:31:30;38.60;;;20.38;;
30173;SDS011;16985;50.814;8.530;2023-02-10T11:36:50;33.35;;;17.73;;
30173;SDS011;16985;50.814;8.530;2023-02-10T11:39:25;32.47;;;17.17;;
30173;SDS011;16985;50.814;8.530;2023-02-10T11:41:57;29.45;;;15.88;;
30173;SDS011;16985;50.814;8.530;2023-02-10T11:44:32;30.95;;;15.70;;
30173;SDS011;16985;50.814;8.530;2023-02-10T11:47:02;29.38;;;15.38;;
30173;SDS011;16985;50.814;8.530;2023-02-10T11:49:41;30.00;;;15.18;;
30173;SDS011;16985;50.814;8.530;2023-02-10T11:52:14;33.25;;;16.52;;
30173;SDS011;16985;50.814;8.530;2023-02-10T11:54:44;32.58;;;16.15;;
30173;SDS011;16985;50.814;8.530;2023-02-10T12:06:23;41.63;;;18.48;;
30173;SDS011;16985;50.814;8.530;2023-02-10T12:11:58;32.38;;;17.02;;
30173;SDS011;16985;50.814;8.530;2023-02-10T12:18:16;34.05;;;16.98;;
30173;SDS011;16985;50.814;8.530;2023-02-10T12:21:12;30.00;;;16.73;;
30173;SDS011;16985;50.814;8.530;2023-02-10T12:29:39;30.17;;;16.42;;
30173;SDS011;16985;50.814;8.530;2023-02-10T12:32:55;33.08;;;17.95;;
30173;SDS011;16985;50.814;8.530;2023-02-10T12:35:55;32.70;;;17.33;;
30173;SDS011;16985;50.814;8.530;2023-02-10T12:38:40;33.80;;;16.65;;
30173;SDS011;16985;50.814;8.530;2023-02-10T12:41:42;34.63;;;17.73;;
30173;SDS011;16985;50.814;8.530;2023-02-10T12:49:52;36.10;;;16.83;;
30173;SDS011;16985;50.814;8.530;2023-02-10T12:52:36;32.20;;;16.42;;
30173;SDS011;16985;50.814;8.530;2023-02-10T12:58:34;42.38;;;19.75;;
30173;SDS011;16985;50.814;8.530;2023-02-10T13:01:22;36.03;;;16.60;;
30173;SDS011;16985;50.814;8.530;2023-02-10T13:04:11;29.70;;;15.85;;
30173;SDS011;16985;50.814;8.530;2023-02-10T13:06:56;33.80;;;18.48;;
30173;SDS011;16985;50.814;8.530;2023-02-10T13:12:27;33.85;;;16.83;;
30173;SDS011;16985;50.814;8.530;2023-02-10T13:15:06;30.00;;;14.57;;
30173;SDS011;16985;50.814;8.530;2023-02-10T13:17:49;28.70;;;15.30;;
30173;SDS011;16985;50.814;8.530;2023-02-10T13:20:28;26.35;;;13.02;;
30173;SDS011;16985;50.814;8.530;2023-02-10T13:26:14;31.63;;;17.33;;
30173;SDS011;16985;50.814;8.530;2023-02-10T13:29:25;35.53;;;15.70;;
30173;SDS011;16985;50.814;8.530;2023-02-10T13:32:25;25.25;;;14.50;;
30173;SDS011;16985;50.814;8.530;2023-02-10T13:34:56;27.75;;;14.82;;
30173;SDS011;16985;50.814;8.530;2023-02-10T13:37:34;29.30;;;14.90;;
30173;SDS011;16985;50.814;8.530;2023-02-10T13:40:16;28.58;;;14.52;;
30173;SDS011;16985;50.814;8.530;2023-02-10T13:42:47;33.67;;;14.63;;
30173;SDS011;16985;50.814;8.530;2023-02-10T13:45:30;30.58;;;14.32;;
30173;SDS011;16985;50.814;8.530;2023-02-10T13:50:46;26.10;;;13.87;;
30173;SDS011;16985;50.814;8.530;2023-02-10T13:58:58;25.63;;;13.65;;
30173;SDS011;16985;50.814;8.530;2023-02-10T14:02:01;25.88;;;13.40;;
30173;SDS011;16985;50.814;8.530;2023-02-10T14:04:41;26.92;;;13.82;;
30173;SDS011;16985;50.814;8.530;2023-02-10T14:07:16;32.97;;;16.33;;
30173;SDS011;16985;50.814;8.530;2023-02-10T14:15:28;30.98;;;15.63;;
30173;SDS011;16985;50.814;8.530;2023-02-10T14:18:02;26.42;;;14.60;;
30173;SDS011;16985;50.814;8.530;2023-02-10T14:20:34;30.85;;;15.20;;
30173;SDS011;16985;50.814;8.530;2023-02-10T14:23:03;34.83;;;15.88;;
30173;SDS011;16985;50.814;8.530;2023-02-10T14:25:32;35.35;;;15.45;;
30173;SDS011;16985;50.814;8.530;2023-02-10T14:28:12;30.58;;;14.75;;
30173;SDS011;16985;50.814;8.530;2023-02-10T14:30:49;26.63;;;14.77;;
30173;SDS011;16985;50.814;8.530;2023-02-10T14:33:26;29.67;;;13.70;;
30173;SDS011;16985;50.814;8.530;2023-02-10T14:35:56;32.50;;;15.20;;
30173;SDS011;16985;50.814;8.530;2023-02-10T14:38:26;29.20;;;13.65;;
30173;SDS011;16985;50.814;8.530;2023-02-10T14:40:54;33.50;;;15.30;;
30173;SDS011;16985;50.814;8.530;2023-02-10T14:43:26;25.33;;;13.75;;
30173;SDS011;16985;50.814;8.530;2023-02-10T14:45:54;31.95;;;14.07;;
30173;SDS011;16985;50.814;8.530;2023-02-10T14:48:23;29.88;;;14.93;;
30173;SDS011;16985;50.814;8.530;2023-02-10T14:50:59;26.45;;;14.15;;
30173;SDS011;16985;50.814;8.530;2023-02-10T14:53:30;30.83;;;14.55;;
30173;SDS011;16985;50.814;8.530;2023-02-10T14:55:57;25.85;;;14.23;;
30173;SDS011;16985;50.814;8.530;2023-02-10T14:58:25;32.45;;;14.55;;
30173;SDS011;16985;50.814;8.530;2023-02-10T15:01:11;23.75;;;14.70;;
30173;SDS011;16985;50.814;8.530;2023-02-10T15:03:55;27.52;;;14.63;;
30173;SDS011;16985;50.814;8.530;2023-02-10T15:06:23;26.58;;;13.38;;
30173;SDS011;16985;50.814;8.530;2023-02-10T15:14:23;32.05;;;14.73;;
30173;SDS011;16985;50.814;8.530;2023-02-10T15:16:58;35.45;;;15.07;;
30173;SDS011;16985;50.814;8.530;2023-02-10T15:19:29;33.00;;;15.45;;
30173;SDS011;16985;50.814;8.530;2023-02-10T15:21:54;34.35;;;16.38;;
30173;SDS011;16985;50.814;8.530;2023-02-10T15:24:25;31.15;;;16.10;;
30173;SDS011;16985;50.814;8.530;2023-02-10T15:27:15;38.40;;;18.83;;
30173;SDS011;16985;50.814;8.530;2023-02-10T15:29:44;35.33;;;16.83;;
30173;SDS011;16985;50.814;8.530;2023-02-10T15:32:16;32.88;;;16.45;;
30173;SDS011;16985;50.814;8.530;2023-02-10T15:34:45;38.92;;;18.98;;
30173;SDS011;16985;50.814;8.530;2023-02-10T15:37:17;35.47;;;18.75;;
30173;SDS011;16985;50.814;8.530;2023-02-10T15:39:56;38.85;;;17.75;;
30173;SDS011;16985;50.814;8.530;2023-02-10T15:42:26;41.42;;;18.23;;
30173;SDS011;16985;50.814;8.530;2023-02-10T15:45:00;34.63;;;16.63;;
30173;SDS011;16985;50.814;8.530;2023-02-10T15:47:42;39.03;;;18.95;;
30173;SDS011;16985;50.814;8.530;2023-02-10T15:50:11;32.63;;;18.02;;
30173;SDS011;16985;50.814;8.530;2023-02-10T15:52:39;40.85;;;19.95;;
30173;SDS011;16985;50.814;8.530;2023-02-10T15:55:15;38.63;;;20.63;;
30173;SDS011;16985;50.814;8.530;2023-02-10T15:57:56;37.20;;;20.73;;
30173;SDS011;16985;50.814;8.530;2023-02-10T16:02:53;40.67;;;21.63;;
30173;SDS011;16985;50.814;8.530;2023-02-10T16:05:20;40.30;;;20.27;;
30173;SDS011;16985;50.814;8.530;2023-02-10T16:07:47;40.30;;;20.80;;
30173;SDS011;16985;50.814;8.530;2023-02-10T16:10:15;35.47;;;19.17;;
30173;SDS011;16985;50.814;8.530;2023-02-10T16:12:50;46.75;;;21.00;;
30173;SDS011;16985;50.814;8.530;2023-02-10T16:15:20;33.35;;;18.00;;
30173;SDS011;16985;50.814;8.530;2023-02-10T16:17:55;41.03;;;19.10;;
30173;SDS011;16985;50.814;8.530;2023-02-10T16:20:29;35.15;;;17.50;;
30173;SDS011;16985;50.814;8.530;2023-02-10T16:22:57;32.58;;;18.73;;
30173;SDS011;16985;50.814;8.530;2023-02-10T16:25:25;34.97;;;18.75;;
30173;SDS011;16985;50.814;8.530;2023-02-10T16:27:52;48.42;;;22.55;;
30173;SDS011;16985;50.814;8.530;2023-02-10T16:30:22;41.00;;;18.80;;